createdAt,value
2023-10-09T00:01:17.540Z,23.20
2023-10-09T00:03:52.484Z,10.98
2023-10-09T00:06:39.044Z,13.85
2023-10-09T00:09:36.122Z,17.10
2023-10-09T00:12:12.405Z,21.77
2023-10-09T00:14:43.047Z,27.92
2023-10-09T00:17:13.645Z,12.23
2023-10-09T00:19:45.617Z,8.50
2023-10-09T00:22:25.745Z,8.93
2023-10-09T00:25:17.090Z,7.13
2023-10-09T00:27:50.540Z,6.65
2023-10-09T00:30:23.825Z,6.20
2023-10-09T00:33:03.428Z,6.30
2023-10-09T00:35:59.868Z,6.25
2023-10-09T00:38:35.927Z,6.25
2023-10-09T00:41:12.870Z,6.55
2023-10-09T00:43:54.575Z,6.75
2023-10-09T00:46:25.709Z,7.15
2023-10-09T00:49:05.204Z,6.40
2023-10-09T00:51:38.360Z,6.05
2023-10-09T00:54:16.663Z,5.32
2023-10-09T00:56:54.269Z,4.70
2023-10-09T00:59:26.924Z,4.32
2023-10-09T01:02:09.926Z,3.70
2023-10-09T01:04:45.414Z,2.83
2023-10-09T01:07:23.222Z,2.50
2023-10-09T01:09:56.686Z,2.30
2023-10-09T01:12:31.050Z,2.25
2023-10-09T01:15:02.054Z,2.00
2023-10-09T01:17:39.320Z,2.10
2023-10-09T01:20:18.820Z,1.67
2023-10-09T01:22:52.812Z,1.30
2023-10-09T01:25:23.792Z,1.60
2023-10-09T01:27:54.933Z,1.00
2023-10-09T01:30:25.783Z,1.10
2023-10-09T01:32:59.740Z,1.08
2023-10-09T01:35:34.701Z,1.20
2023-10-09T01:38:12.493Z,0.85
2023-10-09T01:40:45.328Z,0.75
2023-10-09T01:43:21.197Z,0.93
2023-10-09T01:45:54.213Z,0.70
2023-10-09T01:48:26.719Z,0.93
2023-10-09T01:50:57.398Z,0.70
2023-10-09T01:53:32.133Z,0.80
2023-10-09T01:56:16.954Z,0.80
2023-10-09T01:58:49.428Z,0.68
2023-10-09T02:01:20.155Z,0.70
2023-10-09T02:03:54.172Z,0.70
2023-10-09T02:06:28.398Z,0.73
2023-10-09T02:08:59.050Z,1.00
2023-10-09T02:11:38.774Z,0.73
2023-10-09T02:14:21.491Z,0.63
2023-10-09T02:17:04.781Z,0.60
2023-10-09T02:19:38.324Z,0.80
2023-10-09T02:22:14.804Z,0.73
2023-10-09T02:25:00.080Z,0.50
2023-10-09T02:28:08.151Z,0.68
2023-10-09T02:30:39.563Z,0.70
2023-10-09T02:33:11.421Z,0.60
2023-10-09T02:35:44.872Z,0.60
2023-10-09T02:38:16.795Z,0.40
2023-10-09T02:41:03.679Z,0.70
2023-10-09T02:43:57.150Z,0.50
2023-10-09T02:46:35.293Z,0.50
2023-10-09T02:49:06.163Z,0.45
2023-10-09T02:51:43.360Z,0.35
2023-10-09T02:54:25.889Z,0.50
2023-10-09T02:57:07.663Z,0.50
2023-10-09T02:59:40.782Z,0.50
2023-10-09T03:02:11.343Z,0.50
2023-10-09T03:04:43.754Z,0.40
2023-10-09T03:07:15.911Z,0.40
2023-10-09T03:09:46.465Z,0.40
2023-10-09T03:12:20.977Z,0.40
2023-10-09T03:14:51.446Z,0.50
2023-10-09T03:17:21.771Z,0.40
2023-10-09T03:19:52.928Z,0.40
2023-10-09T03:22:23.690Z,0.30
2023-10-09T03:24:55.099Z,0.40
2023-10-09T03:27:25.760Z,0.40
2023-10-09T03:29:56.349Z,0.57
2023-10-09T03:32:26.897Z,0.50
2023-10-09T03:34:57.650Z,0.32
2023-10-09T03:37:37.316Z,0.30
2023-10-09T03:40:09.933Z,0.40
2023-10-09T03:42:44.279Z,0.50
2023-10-09T03:45:20.367Z,0.40
2023-10-09T03:47:51.065Z,0.40
2023-10-09T03:50:37.716Z,0.40
2023-10-09T03:53:14.195Z,0.55
2023-10-09T03:55:44.720Z,0.40
2023-10-09T03:58:16.509Z,0.47
2023-10-09T04:00:51.624Z,0.47
2023-10-09T04:03:22.833Z,0.40
2023-10-09T04:05:55.704Z,0.40
2023-10-09T04:08:32.390Z,0.40
2023-10-09T04:11:06.333Z,0.40
2023-10-09T04:13:37.156Z,0.47
2023-10-09T04:16:33.635Z,0.30
2023-10-09T04:19:13.794Z,0.40
2023-10-09T04:21:44.483Z,0.50
2023-10-09T04:24:15.251Z,0.35
2023-10-09T04:26:47.203Z,0.40
2023-10-09T04:29:39.668Z,0.40
2023-10-09T04:32:10.351Z,0.40
2023-10-09T04:34:50.483Z,0.40
2023-10-09T04:37:38.888Z,0.40
2023-10-09T04:40:17.178Z,0.60
2023-10-09T04:43:00.414Z,0.40
2023-10-09T04:45:46.072Z,0.43
2023-10-09T04:48:34.820Z,0.40
2023-10-09T04:51:24.322Z,0.40
2023-10-09T04:56:54.345Z,0.40
2023-10-09T04:59:28.159Z,0.32
2023-10-09T05:02:01.721Z,0.60
2023-10-09T05:04:45.558Z,0.45
2023-10-09T05:07:25.485Z,0.40
2023-10-09T05:10:06.677Z,0.60
2023-10-09T05:12:43.396Z,0.50
2023-10-09T05:15:15.623Z,0.40
2023-10-09T05:17:57.631Z,0.60
2023-10-09T05:20:28.507Z,0.40
2023-10-09T05:23:09.973Z,0.40
2023-10-09T05:25:55.635Z,0.50
2023-10-09T05:28:50.664Z,0.40
2023-10-09T05:31:39.461Z,0.40
2023-10-09T05:34:10.182Z,0.43
2023-10-09T05:36:40.780Z,0.50
2023-10-09T05:39:20.958Z,0.50
2023-10-09T05:41:54.905Z,0.38
2023-10-09T05:44:51.794Z,0.40
2023-10-09T05:47:33.592Z,0.40
2023-10-09T05:50:24.304Z,0.40
2023-10-09T05:52:56.668Z,0.50
2023-10-09T05:55:46.942Z,0.40
2023-10-09T05:58:35.883Z,0.40
2023-10-09T06:01:09.159Z,0.40
2023-10-09T06:03:56.143Z,0.40
2023-10-09T06:06:35.794Z,0.32
2023-10-09T06:09:16.900Z,0.40
2023-10-09T06:11:51.962Z,0.50
2023-10-09T06:14:33.389Z,0.30
2023-10-09T06:17:26.910Z,0.30
2023-10-09T06:20:22.897Z,0.45
2023-10-09T06:22:59.012Z,0.40
2023-10-09T06:25:34.915Z,0.30
2023-10-09T06:28:05.702Z,0.20
2023-10-09T06:30:38.242Z,0.25
2023-10-09T06:33:31.744Z,0.32
2023-10-09T06:36:10.679Z,0.25
2023-10-09T06:39:03.906Z,0.30
2023-10-09T06:41:39.787Z,0.20
2023-10-09T06:44:24.931Z,0.30
2023-10-09T06:46:59.929Z,0.30
2023-10-09T06:49:35.591Z,0.30
2023-10-09T06:52:29.474Z,0.20
2023-10-09T06:55:11.317Z,0.30
2023-10-09T06:57:51.376Z,0.30
2023-10-09T07:00:42.999Z,0.30
2023-10-09T07:03:13.688Z,0.30
2023-10-09T07:06:04.336Z,0.30
2023-10-09T07:08:39.285Z,0.22
2023-10-09T07:11:45.339Z,0.20
2023-10-09T07:14:32.526Z,0.30
2023-10-09T07:17:24.018Z,0.28
2023-10-09T07:19:55.992Z,0.20
2023-10-09T07:25:16.712Z,0.20
2023-10-09T07:27:47.263Z,0.20
2023-10-09T07:30:32.100Z,0.20
2023-10-09T07:33:14.817Z,0.30
2023-10-09T07:35:50.312Z,0.20
2023-10-09T07:38:47.201Z,0.20
2023-10-09T07:41:18.136Z,0.20
2023-10-09T07:43:49.395Z,0.20
2023-10-09T07:46:35.827Z,0.17
2023-10-09T07:49:11.546Z,0.17
2023-10-09T07:51:45.973Z,0.25
2023-10-09T07:54:34.163Z,0.40
2023-10-09T07:57:24.938Z,0.20
2023-10-09T08:00:03.256Z,0.20
2023-10-09T08:02:42.190Z,0.10
2023-10-09T08:05:21.779Z,0.30
2023-10-09T08:08:16.774Z,0.13
2023-10-09T08:11:15.478Z,0.13
2023-10-09T08:13:52.077Z,0.20
2023-10-09T08:16:27.902Z,0.20
2023-10-09T08:18:59.450Z,0.20
2023-10-09T08:21:46.311Z,0.20
2023-10-09T08:24:34.971Z,0.20
2023-10-09T08:27:23.799Z,0.20
2023-10-09T08:30:14.312Z,0.20
2023-10-09T08:35:35.363Z,0.20
2023-10-09T08:38:12.757Z,0.20
2023-10-09T08:40:45.255Z,0.25
2023-10-09T08:43:24.069Z,0.20
2023-10-09T08:46:05.431Z,0.45
2023-10-09T08:48:39.745Z,0.70
2023-10-09T08:51:12.937Z,0.82
2023-10-09T08:53:45.482Z,0.70
2023-10-09T08:56:26.657Z,0.88
2023-10-09T08:58:59.450Z,1.00
2023-10-09T09:01:34.202Z,0.90
2023-10-09T09:04:05.090Z,1.10
2023-10-09T09:06:43.258Z,1.33
2023-10-09T09:09:18.172Z,0.85
2023-10-09T09:11:51.280Z,0.90
2023-10-09T09:14:22.160Z,1.02
2023-10-09T09:16:54.359Z,1.03
2023-10-09T09:19:34.956Z,1.10
2023-10-09T09:22:14.927Z,1.30
2023-10-09T09:25:05.395Z,1.40
2023-10-09T09:27:57.788Z,1.55
2023-10-09T09:30:40.104Z,1.45
2023-10-09T09:33:44.536Z,1.60
2023-10-09T09:36:15.144Z,1.45
2023-10-09T09:38:51.970Z,1.40
2023-10-09T09:41:28.862Z,1.70
2023-10-09T09:44:03.623Z,2.17
2023-10-09T09:46:39.436Z,2.28
2023-10-09T09:49:18.826Z,2.65
2023-10-09T09:51:50.284Z,1.90
2023-10-09T09:54:26.396Z,2.37
2023-10-09T09:57:01.430Z,2.20
2023-10-09T09:59:37.575Z,2.70
2023-10-09T10:02:10.512Z,1.80
2023-10-09T10:04:45.075Z,2.22
2023-10-09T10:07:18.470Z,2.95
2023-10-09T10:09:51.105Z,2.70
2023-10-09T10:12:49.335Z,2.10
2023-10-09T10:15:19.874Z,2.28
2023-10-09T10:18:21.481Z,2.63
2023-10-09T10:21:34.427Z,3.20
2023-10-09T10:24:08.689Z,3.08
2023-10-09T10:26:39.490Z,2.90
2023-10-09T10:29:28.619Z,2.72
2023-10-09T10:32:03.335Z,3.20
2023-10-09T10:35:08.688Z,4.82
2023-10-09T10:38:02.804Z,3.40
2023-10-09T10:40:48.666Z,5.72
2023-10-09T10:43:36.418Z,4.45
2023-10-09T10:46:17.789Z,4.10
2023-10-09T10:48:51.345Z,4.78
2023-10-09T10:51:24.168Z,5.00
2023-10-09T10:53:59.700Z,5.32
2023-10-09T10:56:39.059Z,5.22
2023-10-09T10:59:09.814Z,4.88
2023-10-09T11:02:00.397Z,4.60
2023-10-09T11:04:34.840Z,4.60
2023-10-09T11:07:12.133Z,4.90
2023-10-09T11:10:01.279Z,4.13
2023-10-09T11:12:47.022Z,3.75
2023-10-09T11:15:23.863Z,5.82
2023-10-09T11:18:27.345Z,6.47
2023-10-09T11:21:06.724Z,5.28
2023-10-09T11:23:37.676Z,5.00
2023-10-09T11:26:30.308Z,6.07
2023-10-09T11:29:21.129Z,6.25
2023-10-09T11:32:07.363Z,6.32
2023-10-09T11:34:47.537Z,7.18
2023-10-09T11:37:20.886Z,5.30
2023-10-09T11:39:57.875Z,5.68
2023-10-09T11:42:38.980Z,6.85
2023-10-09T11:45:25.457Z,7.70
2023-10-09T11:48:01.154Z,8.05
2023-10-09T11:51:18.715Z,8.95
2023-10-09T11:53:52.003Z,8.75
2023-10-09T11:56:29.510Z,7.95
2023-10-09T11:59:01.077Z,6.57
2023-10-09T12:04:11.611Z,6.07
2023-10-09T12:06:44.748Z,5.78
2023-10-09T12:09:19.061Z,4.78
2023-10-09T12:12:03.653Z,3.95
2023-10-09T12:14:35.882Z,3.65
2023-10-09T12:17:10.818Z,3.40
2023-10-09T12:19:44.750Z,2.60
2023-10-09T12:22:18.378Z,2.63
2023-10-09T12:24:49.184Z,3.30
2023-10-09T12:27:22.467Z,4.90
2023-10-09T12:29:52.972Z,5.45
2023-10-09T12:32:23.548Z,5.30
2023-10-09T12:34:53.956Z,5.93
2023-10-09T12:37:24.695Z,5.45
2023-10-09T12:39:58.147Z,5.63
2023-10-09T12:42:30.417Z,5.57
2023-10-09T12:45:03.890Z,6.00
2023-10-09T12:47:35.256Z,5.47
2023-10-09T12:50:15.814Z,5.95
2023-10-09T12:52:46.480Z,6.18
2023-10-09T12:55:21.869Z,6.68
2023-10-09T12:57:53.889Z,6.70
2023-10-09T13:00:27.898Z,8.15
2023-10-09T13:02:58.575Z,6.28
2023-10-09T13:05:29.432Z,6.63
2023-10-09T13:08:00.284Z,6.32
2023-10-09T13:10:33.670Z,6.63
2023-10-09T13:13:08.680Z,6.30
2023-10-09T13:15:44.900Z,6.35
2023-10-09T13:18:17.090Z,6.13
2023-10-09T13:20:47.795Z,5.65
2023-10-09T13:23:18.593Z,5.72
2023-10-09T13:25:52.071Z,6.25
2023-10-09T13:28:23.028Z,6.95
2023-10-09T13:30:53.744Z,6.10
2023-10-09T13:33:24.838Z,6.72
2023-10-09T13:35:55.443Z,6.78
2023-10-09T13:38:27.312Z,6.63
2023-10-09T13:41:06.479Z,7.07
2023-10-09T13:43:37.178Z,6.45
2023-10-09T13:46:07.720Z,6.03
2023-10-09T13:48:43.245Z,5.40
2023-10-09T13:51:21.256Z,5.10
2023-10-09T13:53:52.394Z,5.22
2023-10-09T13:56:29.394Z,4.90
2023-10-09T13:59:02.829Z,4.30
2023-10-09T14:01:34.566Z,3.60
2023-10-09T14:06:39.419Z,3.28
2023-10-09T14:09:11.453Z,2.40
2023-10-09T14:11:46.304Z,2.60
2023-10-09T14:14:18.659Z,2.20
2023-10-09T14:16:49.511Z,2.20
2023-10-09T14:19:23.342Z,2.00
2023-10-09T14:21:56.223Z,2.10
2023-10-09T14:24:35.154Z,3.78
2023-10-09T14:27:06.521Z,3.22
2023-10-09T14:29:39.952Z,2.58
2023-10-09T14:32:15.232Z,2.80
2023-10-09T14:34:52.665Z,2.58
2023-10-09T14:37:25.378Z,2.28
2023-10-09T14:39:57.595Z,2.47
2023-10-09T14:42:29.988Z,2.10
2023-10-09T14:45:01.022Z,1.90
2023-10-09T14:47:33.404Z,2.00
2023-10-09T14:50:10.524Z,1.98
2023-10-09T14:52:41.258Z,1.75
2023-10-09T14:55:12.986Z,1.85
2023-10-09T14:57:44.507Z,1.55
2023-10-09T15:00:16.997Z,1.42
2023-10-09T15:02:47.506Z,1.13
2023-10-09T15:05:18.395Z,1.02
2023-10-09T15:07:49.014Z,1.33
2023-10-09T15:10:20.464Z,1.52
2023-10-09T15:12:51.902Z,1.23
2023-10-09T15:15:27.863Z,1.30
2023-10-09T15:17:58.443Z,1.17
2023-10-09T15:20:29.391Z,1.17
2023-10-09T15:23:00.245Z,1.37
2023-10-09T15:25:30.670Z,1.10
2023-10-09T15:28:01.499Z,1.27
2023-10-09T15:30:33.769Z,1.30
2023-10-09T15:33:04.445Z,1.10
2023-10-09T15:35:37.833Z,1.50
2023-10-09T15:38:08.451Z,1.85
2023-10-09T15:40:44.123Z,1.30
2023-10-09T15:43:15.654Z,1.70
2023-10-09T15:45:52.844Z,1.88
2023-10-09T15:48:23.619Z,1.83
2023-10-09T15:50:56.283Z,1.80
2023-10-09T15:53:27.184Z,1.80
2023-10-09T15:55:59.572Z,2.08
2023-10-09T15:58:31.309Z,2.20
2023-10-09T16:03:36.964Z,2.08
2023-10-09T16:06:07.572Z,3.42
2023-10-09T16:08:39.092Z,4.47
2023-10-09T16:11:10.133Z,5.22
2023-10-09T16:13:41.708Z,4.68
2023-10-09T16:16:12.217Z,4.20
2023-10-09T16:18:43.311Z,4.00
2023-10-09T16:21:14.552Z,4.23
2023-10-09T16:23:45.117Z,3.63
2023-10-09T16:26:15.934Z,3.67
2023-10-09T16:28:47.159Z,4.07
2023-10-09T16:31:21.034Z,3.57
2023-10-09T16:33:51.558Z,3.60
2023-10-09T16:36:23.382Z,3.80
2023-10-09T16:38:54.638Z,3.65
2023-10-09T16:41:28.132Z,3.30
2023-10-09T16:44:01.752Z,3.67
2023-10-09T16:46:32.366Z,3.13
2023-10-09T16:49:06.424Z,3.00
2023-10-09T16:51:37.211Z,3.05
2023-10-09T16:54:07.700Z,2.97
2023-10-09T16:56:38.628Z,2.80
2023-10-09T16:59:15.286Z,2.47
2023-10-09T17:01:49.722Z,2.35
2023-10-09T17:04:22.254Z,2.92
2023-10-09T17:06:54.592Z,3.70
2023-10-09T17:09:26.634Z,2.33
2023-10-09T17:11:59.921Z,2.42
2023-10-09T17:14:30.784Z,2.28
2023-10-09T17:17:01.276Z,2.10
2023-10-09T17:19:32.005Z,2.08
2023-10-09T17:22:12.981Z,1.85
2023-10-09T17:24:45.629Z,2.10
2023-10-09T17:27:19.891Z,1.58
2023-10-09T17:29:50.673Z,1.60
2023-10-09T17:32:21.304Z,1.98
2023-10-09T17:34:51.554Z,1.75
2023-10-09T17:37:25.311Z,1.90
2023-10-09T17:39:55.853Z,1.60
2023-10-09T17:42:26.670Z,1.73
2023-10-09T17:44:57.701Z,1.70
2023-10-09T17:47:28.620Z,1.88
2023-10-09T17:50:00.857Z,1.58
2023-10-09T17:52:31.536Z,2.15
2023-10-09T17:55:08.659Z,1.70
2023-10-09T17:57:43.446Z,1.80
2023-10-09T18:00:27.775Z,1.67
2023-10-09T18:02:58.893Z,1.27
2023-10-09T18:05:45.006Z,1.80
2023-10-09T18:08:27.669Z,1.80
2023-10-09T18:11:00.206Z,1.60
2023-10-09T18:13:30.989Z,1.70
2023-10-09T18:16:18.831Z,1.08
2023-10-09T18:18:50.908Z,1.45
2023-10-09T18:21:21.901Z,1.40
2023-10-09T18:23:52.585Z,1.50
2023-10-09T18:26:25.966Z,1.20
2023-10-09T18:28:56.583Z,1.08
2023-10-09T18:31:28.829Z,0.82
2023-10-09T18:34:00.396Z,0.95
2023-10-09T18:36:33.392Z,1.00
2023-10-09T18:39:04.710Z,1.05
2023-10-09T18:41:35.728Z,1.02
2023-10-09T18:44:11.744Z,0.82
2023-10-09T18:46:42.546Z,0.82
2023-10-09T18:49:14.332Z,0.70
2023-10-09T18:51:46.545Z,0.80
2023-10-09T18:56:46.881Z,0.60
2023-10-09T18:59:17.737Z,0.77
2023-10-09T19:01:49.523Z,0.60
2023-10-09T19:04:20.652Z,0.60
2023-10-09T19:06:53.069Z,0.50
2023-10-09T19:09:24.890Z,0.60
2023-10-09T19:14:31.132Z,0.77
2023-10-09T19:19:32.777Z,0.70
2023-10-09T19:22:03.092Z,0.60
2023-10-09T19:24:34.002Z,0.80
2023-10-09T19:27:04.486Z,0.80
2023-10-09T19:29:34.892Z,0.90
2023-10-09T19:32:05.710Z,0.80
2023-10-09T19:34:36.923Z,0.80
2023-10-09T19:37:32.194Z,0.75
2023-10-09T19:40:09.963Z,1.00
2023-10-09T19:42:41.186Z,0.80
2023-10-09T19:45:15.542Z,0.73
2023-10-09T19:47:46.123Z,0.82
2023-10-09T19:50:16.785Z,1.17
2023-10-09T19:52:47.821Z,1.05
2023-10-09T19:55:23.640Z,1.10
2023-10-09T19:57:54.050Z,0.98
2023-10-09T20:00:24.485Z,0.90
2023-10-09T20:02:59.943Z,0.90
2023-10-09T20:05:31.201Z,1.33
2023-10-09T20:08:02.144Z,0.88
2023-10-09T20:10:33.078Z,0.90
2023-10-09T20:13:06.014Z,0.70
2023-10-09T20:15:36.566Z,1.05
2023-10-09T20:18:09.307Z,1.08
2023-10-09T20:20:40.805Z,2.10
2023-10-09T20:23:11.257Z,0.70
2023-10-09T20:25:41.738Z,0.80
2023-10-09T20:28:12.744Z,0.82
2023-10-09T20:30:43.135Z,0.75
2023-10-09T20:33:13.397Z,0.60
2023-10-09T20:35:54.164Z,0.60
2023-10-09T20:38:30.198Z,0.70
2023-10-09T20:41:02.993Z,0.68
2023-10-09T20:43:36.142Z,0.80
2023-10-09T20:46:12.246Z,0.80
2023-10-09T20:48:48.392Z,0.85
2023-10-09T20:51:20.750Z,0.73
2023-10-09T20:53:52.858Z,0.93
2023-10-09T20:56:26.220Z,1.30
2023-10-09T20:58:58.059Z,1.00
2023-10-09T21:01:29.073Z,0.93
2023-10-09T21:03:59.929Z,1.10
2023-10-09T21:06:31.297Z,1.40
2023-10-09T21:09:02.107Z,1.30
2023-10-09T21:11:33.463Z,1.00
2023-10-09T21:14:04.412Z,1.40
2023-10-09T21:16:35.410Z,1.50
2023-10-09T21:19:07.071Z,1.20
2023-10-09T21:21:39.478Z,1.27
2023-10-09T21:24:11.421Z,1.58
2023-10-09T21:26:42.232Z,1.50
2023-10-09T21:29:14.141Z,1.30
2023-10-09T21:31:45.384Z,1.73
2023-10-09T21:34:16.845Z,1.40
2023-10-09T21:36:48.425Z,1.20
2023-10-09T21:39:20.069Z,1.90
2023-10-09T21:41:50.885Z,1.38
2023-10-09T21:44:21.621Z,1.60
2023-10-09T21:46:52.908Z,1.65
2023-10-09T21:49:23.770Z,1.45
2023-10-09T21:52:14.825Z,1.40
2023-10-09T21:54:45.568Z,1.90
2023-10-09T21:57:17.123Z,1.83
2023-10-09T21:59:48.923Z,1.80
2023-10-09T22:02:20.644Z,1.95
2023-10-09T22:04:51.512Z,2.90
2023-10-09T22:07:32.361Z,3.57
2023-10-09T22:10:03.794Z,3.28
2023-10-09T22:12:34.796Z,4.13
2023-10-09T22:15:07.920Z,3.50
2023-10-09T22:17:45.870Z,2.45
2023-10-09T22:20:21.348Z,2.35
2023-10-09T22:22:58.589Z,2.25
2023-10-09T22:25:32.409Z,2.38
2023-10-09T22:28:04.508Z,1.95
2023-10-09T22:33:14.660Z,1.98
2023-10-09T22:35:48.264Z,1.90
2023-10-09T22:38:22.963Z,1.42
2023-10-09T22:40:53.914Z,1.50
2023-10-09T22:43:26.117Z,1.58
2023-10-09T22:45:58.984Z,1.60
2023-10-09T22:48:29.983Z,1.88
2023-10-09T22:51:23.290Z,1.42
2023-10-09T22:53:54.239Z,1.40
2023-10-09T22:56:25.568Z,1.17
2023-10-09T22:58:57.478Z,0.90
2023-10-09T23:01:30.718Z,1.00
2023-10-09T23:04:16.531Z,1.40
2023-10-09T23:06:47.274Z,1.10
2023-10-09T23:09:18.749Z,1.20
2023-10-09T23:11:56.365Z,1.63
2023-10-09T23:14:28.947Z,1.20
2023-10-09T23:17:00.771Z,1.55
2023-10-09T23:19:34.938Z,1.30
2023-10-09T23:22:22.783Z,1.10
2023-10-09T23:24:53.726Z,1.23
2023-10-09T23:27:45.071Z,1.27
2023-10-09T23:30:24.636Z,1.10
2023-10-09T23:33:09.264Z,1.38
2023-10-09T23:35:57.407Z,1.15
2023-10-09T23:38:35.689Z,1.60
2023-10-09T23:41:12.478Z,4.57
2023-10-09T23:43:48.522Z,6.10
2023-10-09T23:46:19.375Z,8.02
2023-10-09T23:48:54.894Z,12.48
2023-10-09T23:51:29.152Z,16.30
2023-10-09T23:54:12.314Z,16.90
2023-10-09T23:57:01.659Z,18.23
2023-10-09T23:59:41.168Z,16.15
